createdAt,value
2023-01-11T00:00:45.780Z,1.25
2023-01-11T00:03:14.365Z,1.05
2023-01-11T00:05:43.870Z,1.05
2023-01-11T00:08:12.978Z,1.12
2023-01-11T00:10:41.318Z,1.27
2023-01-11T00:13:09.246Z,1.05
2023-01-11T00:15:40.416Z,1.25
2023-01-11T00:18:08.769Z,1.02
2023-01-11T00:20:39.419Z,1.20
2023-01-11T00:23:07.488Z,0.95
2023-01-11T00:25:36.255Z,1.05
2023-01-11T00:28:05.339Z,1.00
2023-01-11T00:30:36.586Z,1.08
2023-01-11T00:33:06.307Z,1.08
2023-01-11T00:35:34.320Z,0.82
2023-01-11T00:38:02.227Z,0.95
2023-01-11T00:40:30.804Z,0.93
2023-01-11T00:43:16.497Z,1.98
2023-01-11T00:46:13.814Z,0.93
2023-01-11T00:48:43.148Z,1.20
2023-01-11T00:51:11.561Z,1.30
2023-01-11T00:53:39.517Z,0.82
2023-01-11T00:56:08.167Z,1.10
2023-01-11T00:58:36.466Z,1.10
2023-01-11T01:01:07.866Z,1.02
2023-01-11T01:03:35.917Z,0.93
2023-01-11T01:06:05.726Z,0.75
2023-01-11T01:08:34.042Z,0.80
2023-01-11T01:11:01.984Z,1.00
2023-01-11T01:13:47.788Z,0.75
2023-01-11T01:16:15.882Z,0.85
2023-01-11T01:18:44.607Z,0.60
2023-01-11T01:21:13.995Z,0.60
2023-01-11T01:23:42.330Z,0.45
2023-01-11T01:26:10.564Z,1.08
2023-01-11T01:28:38.573Z,0.73
2023-01-11T01:31:06.934Z,0.65
2023-01-11T01:33:35.250Z,0.65
2023-01-11T01:36:03.425Z,0.85
2023-01-11T01:38:33.536Z,1.20
2023-01-11T01:41:01.932Z,0.73
2023-01-11T01:43:49.054Z,0.73
2023-01-11T01:46:18.793Z,0.80
2023-01-11T01:48:52.400Z,0.47
2023-01-11T01:51:25.819Z,0.95
2023-01-11T01:53:59.653Z,0.70
2023-01-11T01:56:32.720Z,1.62
2023-01-11T01:59:07.784Z,0.52
2023-01-11T02:01:48.037Z,1.00
2023-01-11T02:04:23.726Z,0.47
2023-01-11T02:06:54.167Z,0.40
2023-01-11T02:09:30.556Z,0.60
2023-01-11T02:11:59.688Z,0.65
2023-01-11T02:14:30.258Z,0.55
2023-01-11T02:16:58.412Z,0.30
2023-01-11T02:19:42.045Z,0.60
2023-01-11T02:22:27.753Z,0.47
2023-01-11T02:25:22.818Z,0.30
2023-01-11T02:28:05.762Z,0.45
2023-01-11T02:30:39.897Z,0.50
2023-01-11T02:33:19.476Z,0.40
2023-01-11T02:35:58.363Z,0.15
2023-01-11T02:38:30.682Z,0.37
2023-01-11T02:41:08.752Z,0.40
2023-01-11T02:44:06.502Z,0.40
2023-01-11T02:46:45.366Z,0.47
2023-01-11T02:49:22.256Z,0.95
2023-01-11T02:51:55.634Z,0.37
2023-01-11T02:54:25.357Z,0.35
2023-01-11T02:56:58.070Z,0.43
2023-01-11T02:59:33.305Z,0.70
2023-01-11T03:02:01.445Z,0.68
2023-01-11T03:04:31.613Z,0.57
2023-01-11T03:07:17.196Z,0.30
2023-01-11T03:09:56.950Z,0.55
2023-01-11T03:12:54.845Z,0.43
2023-01-11T03:15:50.356Z,0.52
2023-01-11T03:18:29.503Z,0.47
2023-01-11T03:21:18.627Z,0.50
2023-01-11T03:23:56.736Z,0.30
2023-01-11T03:26:34.973Z,0.40
2023-01-11T03:29:14.618Z,0.47
2023-01-11T03:31:51.711Z,0.40
2023-01-11T03:34:30.513Z,0.30
2023-01-11T03:37:05.643Z,0.50
2023-01-11T03:39:38.268Z,0.47
2023-01-11T03:42:10.493Z,0.40
2023-01-11T03:44:44.698Z,0.37
2023-01-11T03:47:16.564Z,0.45
2023-01-11T03:49:48.822Z,0.60
2023-01-11T03:52:21.921Z,0.40
2023-01-11T03:54:50.724Z,0.52
2023-01-11T03:57:23.398Z,0.40
2023-01-11T03:59:52.099Z,0.60
2023-01-11T04:02:23.455Z,0.52
2023-01-11T04:04:51.949Z,1.08
2023-01-11T04:07:20.002Z,0.47
2023-01-11T04:09:48.271Z,0.77
2023-01-11T04:12:16.629Z,1.15
2023-01-11T04:14:44.664Z,0.65
2023-01-11T04:17:12.921Z,0.40
2023-01-11T04:19:43.154Z,0.22
2023-01-11T04:22:11.115Z,0.60
2023-01-11T04:24:39.143Z,0.30
2023-01-11T04:27:07.594Z,0.50
2023-01-11T04:29:35.788Z,0.45
2023-01-11T04:32:03.946Z,0.45
2023-01-11T04:34:32.151Z,0.25
2023-01-11T04:37:01.648Z,0.37
2023-01-11T04:39:29.841Z,0.65
2023-01-11T04:42:15.953Z,0.40
2023-01-11T04:44:43.914Z,0.70
2023-01-11T04:47:12.408Z,0.75
2023-01-11T04:49:40.532Z,0.88
2023-01-11T04:52:11.257Z,0.60
2023-01-11T04:54:39.469Z,0.50
2023-01-11T04:57:09.078Z,0.50
2023-01-11T04:59:37.142Z,0.43
2023-01-11T05:02:05.560Z,0.70
2023-01-11T05:04:33.775Z,0.75
2023-01-11T05:07:01.856Z,0.57
2023-01-11T05:09:31.815Z,0.50
2023-01-11T05:11:59.747Z,1.30
2023-01-11T05:14:27.865Z,0.50
2023-01-11T05:16:56.041Z,0.60
2023-01-11T05:19:24.109Z,0.70
2023-01-11T05:21:52.231Z,0.60
2023-01-11T05:24:20.945Z,0.62
2023-01-11T05:26:52.410Z,0.50
2023-01-11T05:29:21.839Z,0.90
2023-01-11T05:31:50.216Z,0.62
2023-01-11T05:34:19.025Z,0.50
2023-01-11T05:36:47.451Z,0.60
2023-01-11T05:39:16.013Z,0.40
2023-01-11T05:41:43.974Z,0.60
2023-01-11T05:44:32.080Z,0.60
2023-01-11T05:47:00.815Z,1.12
2023-01-11T05:49:29.302Z,0.85
2023-01-11T05:51:57.440Z,0.73
2023-01-11T05:54:25.528Z,0.73
2023-01-11T05:56:53.771Z,0.85
2023-01-11T05:59:23.372Z,0.68
2023-01-11T06:01:51.622Z,0.45
2023-01-11T06:04:19.911Z,0.90
2023-01-11T06:06:47.867Z,0.43
2023-01-11T06:09:15.881Z,0.68
2023-01-11T06:11:44.422Z,0.68
2023-01-11T06:14:12.419Z,0.70
2023-01-11T06:16:41.890Z,0.50
2023-01-11T06:19:11.426Z,0.43
2023-01-11T06:21:39.919Z,0.75
2023-01-11T06:24:08.571Z,1.20
2023-01-11T06:26:37.061Z,0.70
2023-01-11T06:29:05.088Z,0.62
2023-01-11T06:31:33.040Z,0.73
2023-01-11T06:34:02.544Z,0.70
2023-01-11T06:36:30.565Z,0.60
2023-01-11T06:38:58.605Z,0.62
2023-01-11T06:41:28.662Z,1.10
2023-01-11T06:43:56.708Z,0.50
2023-01-11T06:46:25.664Z,0.35
2023-01-11T06:48:55.307Z,0.40
2023-01-11T06:51:24.704Z,0.40
2023-01-11T06:53:52.700Z,0.40
2023-01-11T06:56:21.088Z,0.37
2023-01-11T06:58:49.075Z,0.50
2023-01-11T07:01:19.146Z,0.40
2023-01-11T07:03:47.874Z,0.30
2023-01-11T07:06:15.960Z,0.20
2023-01-11T07:08:45.267Z,0.60
2023-01-11T07:11:13.673Z,0.37
2023-01-11T07:13:41.743Z,0.57
2023-01-11T07:16:09.761Z,0.30
2023-01-11T07:18:38.123Z,0.45
2023-01-11T07:21:06.349Z,0.40
2023-01-11T07:23:34.313Z,0.25
2023-01-11T07:26:04.075Z,0.55
2023-01-11T07:28:32.124Z,0.37
2023-01-11T07:31:00.493Z,0.30
2023-01-11T07:33:29.193Z,0.30
2023-01-11T07:35:58.326Z,0.45
2023-01-11T07:38:26.387Z,0.50
2023-01-11T07:40:54.687Z,0.43
2023-01-11T07:43:23.364Z,0.50
2023-01-11T07:45:53.407Z,0.25
2023-01-11T07:48:26.483Z,0.40
2023-01-11T07:50:55.751Z,0.40
2023-01-11T07:53:26.387Z,0.30
2023-01-11T07:55:55.973Z,0.32
2023-01-11T07:58:25.967Z,0.40
2023-01-11T08:00:53.968Z,0.20
2023-01-11T08:03:22.445Z,0.30
2023-01-11T08:05:51.283Z,0.45
2023-01-11T08:08:19.491Z,0.50
2023-01-11T08:11:07.701Z,0.68
2023-01-11T08:13:54.645Z,0.40
2023-01-11T08:16:23.034Z,0.45
2023-01-11T08:18:51.158Z,0.40
2023-01-11T08:21:21.426Z,0.40
2023-01-11T08:23:49.670Z,0.30
2023-01-11T08:26:18.136Z,0.25
2023-01-11T08:28:47.973Z,0.40
2023-01-11T08:31:16.447Z,0.40
2023-01-11T08:33:44.663Z,0.50
2023-01-11T08:36:13.945Z,0.95
2023-01-11T08:38:42.519Z,0.45
2023-01-11T08:41:11.670Z,0.35
2023-01-11T08:43:40.058Z,0.30
2023-01-11T08:46:10.656Z,0.30
2023-01-11T08:48:38.654Z,0.13
2023-01-11T08:51:07.139Z,0.60
2023-01-11T08:53:35.837Z,0.45
2023-01-11T08:56:03.770Z,0.40
2023-01-11T08:58:31.874Z,0.43
2023-01-11T09:01:02.701Z,0.22
2023-01-11T09:03:32.307Z,0.47
2023-01-11T09:06:00.736Z,0.20
2023-01-11T09:08:29.587Z,0.30
2023-01-11T09:10:59.904Z,0.55
2023-01-11T09:13:28.372Z,0.62
2023-01-11T09:15:57.450Z,0.35
2023-01-11T09:18:26.875Z,0.30
2023-01-11T09:20:57.040Z,0.30
2023-01-11T09:23:25.026Z,0.50
2023-01-11T09:25:53.090Z,0.50
2023-01-11T09:28:21.370Z,0.40
2023-01-11T09:30:49.389Z,0.30
2023-01-11T09:33:17.444Z,0.20
2023-01-11T09:35:47.044Z,0.20
2023-01-11T09:38:16.374Z,0.50
2023-01-11T09:40:57.184Z,0.20
2023-01-11T09:43:30.256Z,0.40
2023-01-11T09:46:08.335Z,0.40
2023-01-11T09:48:43.437Z,0.50
2023-01-11T09:51:15.816Z,0.40
2023-01-11T09:53:50.241Z,0.35
2023-01-11T09:56:25.336Z,0.25
2023-01-11T09:59:01.347Z,0.30
2023-01-11T10:01:36.186Z,0.30
2023-01-11T10:04:32.889Z,0.35
2023-01-11T10:07:20.009Z,0.30
2023-01-11T10:18:33.758Z,0.20
2023-01-11T10:19:25.707Z,0.30
2023-01-11T10:21:53.517Z,0.10
2023-01-11T10:24:25.896Z,0.20
2023-01-11T10:26:58.977Z,0.57
2023-01-11T10:29:51.600Z,0.30
2023-01-11T10:32:45.836Z,0.50
2023-01-11T10:35:38.637Z,0.52
2023-01-11T10:38:30.879Z,0.20
2023-01-11T10:41:15.798Z,0.32
2023-01-11T10:43:48.926Z,0.30
2023-01-11T10:46:19.796Z,0.30
2023-01-11T10:48:48.379Z,0.32
2023-01-11T10:51:27.216Z,0.30
2023-01-11T10:54:06.910Z,0.30
2023-01-11T10:57:03.017Z,0.40
2023-01-11T10:59:52.500Z,0.30
2023-01-11T11:02:35.786Z,0.50
2023-01-11T11:05:17.047Z,0.62
2023-01-11T11:07:53.064Z,0.28
2023-01-11T11:10:26.880Z,0.37
2023-01-11T11:13:02.413Z,0.40
2023-01-11T11:15:38.168Z,0.37
2023-01-11T11:18:06.467Z,0.25
2023-01-11T11:20:35.787Z,0.30
2023-01-11T11:23:03.816Z,0.30
2023-01-11T11:25:34.180Z,0.30
2023-01-11T11:28:05.914Z,0.40
2023-01-11T11:30:38.568Z,0.32
2023-01-11T11:33:15.150Z,0.20
2023-01-11T11:35:46.327Z,0.30
2023-01-11T11:38:23.126Z,0.20
2023-01-11T11:40:59.063Z,0.25
2023-01-11T11:43:28.976Z,0.30
2023-01-11T11:46:00.074Z,0.40
2023-01-11T11:48:31.189Z,0.17
2023-01-11T11:51:03.050Z,0.30
2023-01-11T11:53:37.254Z,0.35
2023-01-11T11:56:25.942Z,0.30
2023-01-11T11:58:55.918Z,0.20
2023-01-11T12:01:28.474Z,0.43
2023-01-11T12:04:00.014Z,0.20
2023-01-11T12:06:30.236Z,0.10
2023-01-11T12:09:01.796Z,0.13
2023-01-11T12:11:32.905Z,0.30
2023-01-11T12:14:12.483Z,0.25
2023-01-11T12:16:43.778Z,0.40
2023-01-11T12:19:27.376Z,0.20
2023-01-11T12:22:11.043Z,0.45
2023-01-11T12:24:39.267Z,0.20
2023-01-11T12:27:17.787Z,0.25
2023-01-11T12:30:12.301Z,0.20
2023-01-11T12:32:58.888Z,0.30
2023-01-11T12:35:38.372Z,0.20
2023-01-11T12:38:20.127Z,0.15
2023-01-11T12:41:02.117Z,0.25
2023-01-11T12:43:41.579Z,0.20
2023-01-11T12:46:19.974Z,0.17
2023-01-11T12:49:11.569Z,0.25
2023-01-11T12:51:55.810Z,0.08
2023-01-11T12:54:38.430Z,0.20
2023-01-11T12:57:22.054Z,0.22
2023-01-11T13:00:06.961Z,0.20
2023-01-11T13:03:03.145Z,0.20
2023-01-11T13:05:43.517Z,0.00
2023-01-11T13:08:17.613Z,0.10
2023-01-11T13:10:58.995Z,0.15
2023-01-11T13:13:33.143Z,0.10
2023-01-11T13:16:08.269Z,0.10
2023-01-11T13:18:46.605Z,0.20
2023-01-11T13:21:29.462Z,0.17
2023-01-11T13:24:00.480Z,0.40
2023-01-11T13:26:32.423Z,0.10
2023-01-11T13:29:03.484Z,0.30
2023-01-11T13:31:33.500Z,0.10
2023-01-11T13:34:06.034Z,0.10
2023-01-11T13:36:42.009Z,0.20
2023-01-11T13:39:17.480Z,0.20
2023-01-11T13:41:49.928Z,0.28
2023-01-11T13:44:22.322Z,0.20
2023-01-11T13:46:58.728Z,0.30
2023-01-11T13:49:39.322Z,0.20
2023-01-11T13:52:13.878Z,0.20
2023-01-11T13:54:53.156Z,0.30
2023-01-11T13:57:28.193Z,0.40
2023-01-11T14:00:03.229Z,0.22
2023-01-11T14:02:44.547Z,0.30
2023-01-11T14:05:17.402Z,0.20
2023-01-11T14:08:01.016Z,0.17
2023-01-11T14:10:41.102Z,0.13
2023-01-11T14:13:37.626Z,0.25
2023-01-11T14:16:12.315Z,0.40
2023-01-11T14:18:51.321Z,0.22
2023-01-11T14:21:24.522Z,0.55
2023-01-11T14:23:55.696Z,0.28
2023-01-11T14:26:42.161Z,0.75
2023-01-11T14:29:30.655Z,0.37
2023-01-11T14:32:22.955Z,0.60
2023-01-11T14:35:24.920Z,0.30
2023-01-11T14:38:29.570Z,0.40
2023-01-11T14:41:17.279Z,0.32
2023-01-11T14:44:00.007Z,0.30
2023-01-11T14:46:47.750Z,0.28
2023-01-11T14:49:29.491Z,0.40
2023-01-11T14:52:00.397Z,0.25
2023-01-11T14:54:33.007Z,0.70
2023-01-11T14:57:02.756Z,1.27
2023-01-11T14:59:38.073Z,1.00
2023-01-11T15:02:26.144Z,1.08
2023-01-11T15:05:06.514Z,0.65
2023-01-11T15:07:36.669Z,0.77
2023-01-11T15:10:43.534Z,0.80
2023-01-11T15:13:16.231Z,0.60
2023-01-11T15:16:02.824Z,0.30
2023-01-11T15:18:31.427Z,0.70
2023-01-11T15:21:05.016Z,0.40
2023-01-11T15:23:36.888Z,0.40
2023-01-11T15:26:07.948Z,0.30
2023-01-11T15:28:50.231Z,0.40
2023-01-11T15:31:38.998Z,0.30
2023-01-11T15:34:22.708Z,0.30
2023-01-11T15:37:09.107Z,0.30
2023-01-11T15:39:44.330Z,0.43
2023-01-11T15:42:42.422Z,0.30
2023-01-11T15:45:38.715Z,0.32
2023-01-11T15:48:23.096Z,0.32
2023-01-11T15:51:04.603Z,0.40
2023-01-11T15:54:01.717Z,0.60
2023-01-11T15:56:45.029Z,0.60
2023-01-11T15:59:52.961Z,0.50
2023-01-11T16:02:58.970Z,0.40
2023-01-11T16:05:40.451Z,0.37
2023-01-11T16:08:20.460Z,0.43
2023-01-11T16:10:53.844Z,0.40
2023-01-11T16:13:32.093Z,0.40
2023-01-11T16:16:16.896Z,0.30
2023-01-11T16:18:48.405Z,0.55
2023-01-11T16:21:22.317Z,0.37
2023-01-11T16:23:50.710Z,0.50
2023-01-11T16:26:22.163Z,0.40
2023-01-11T16:28:52.492Z,0.60
2023-01-11T16:31:21.316Z,0.37
2023-01-11T16:33:50.153Z,0.30
2023-01-11T16:36:22.607Z,0.50
2023-01-11T16:39:02.090Z,0.50
2023-01-11T16:41:35.052Z,0.60
2023-01-11T16:44:08.099Z,0.70
2023-01-11T16:47:17.148Z,0.52
2023-01-11T16:49:49.157Z,0.60
2023-01-11T16:52:46.701Z,0.65
2023-01-11T16:55:19.141Z,0.60
2023-01-11T16:57:52.244Z,0.40
2023-01-11T17:00:24.005Z,0.62
2023-01-11T17:03:02.434Z,0.50
2023-01-11T17:05:30.703Z,0.60
2023-01-11T17:08:00.135Z,0.50
2023-01-11T17:10:30.992Z,0.50
2023-01-11T17:13:36.267Z,0.65
2023-01-11T17:16:10.432Z,0.57
2023-01-11T17:18:40.958Z,0.45
2023-01-11T17:21:19.881Z,0.60
2023-01-11T17:23:52.743Z,0.50
2023-01-11T17:26:23.588Z,0.55
2023-01-11T17:28:57.253Z,0.43
2023-01-11T17:31:28.454Z,0.60
2023-01-11T17:34:05.343Z,0.50
2023-01-11T17:36:34.023Z,0.77
2023-01-11T17:39:05.239Z,0.50
2023-01-11T17:41:51.443Z,0.60
2023-01-11T17:44:41.472Z,0.55
2023-01-11T17:47:13.238Z,0.60
2023-01-11T17:49:41.758Z,0.98
2023-01-11T17:52:20.015Z,0.70
2023-01-11T17:55:00.841Z,0.88
2023-01-11T17:57:29.105Z,0.60
2023-01-11T18:00:18.519Z,0.90
2023-01-11T18:02:47.588Z,0.93
2023-01-11T18:05:17.566Z,1.02
2023-01-11T18:07:49.515Z,1.17
2023-01-11T18:10:22.176Z,1.20
2023-01-11T18:12:54.432Z,1.62
2023-01-11T18:15:31.238Z,1.02
2023-01-11T18:18:01.442Z,1.40
2023-01-11T18:20:39.760Z,1.60
2023-01-11T18:23:20.936Z,1.50
2023-01-11T18:26:26.267Z,1.70
2023-01-11T18:28:55.124Z,2.20
2023-01-11T18:31:24.332Z,1.30
2023-01-11T18:33:53.432Z,1.70
2023-01-11T18:36:23.212Z,1.40
2023-01-11T18:38:54.121Z,1.70
2023-01-11T18:41:43.210Z,1.80
2023-01-11T18:44:13.159Z,1.60
2023-01-11T18:46:41.342Z,2.42
2023-01-11T18:49:17.769Z,1.85
2023-01-11T18:52:11.923Z,1.60
2023-01-11T18:54:40.808Z,1.87
2023-01-11T18:57:10.824Z,2.15
2023-01-11T18:59:39.488Z,2.00
2023-01-11T19:02:23.946Z,1.90
2023-01-11T19:04:54.138Z,2.35
2023-01-11T19:07:22.995Z,1.90
2023-01-11T19:09:51.721Z,2.33
2023-01-11T19:12:22.091Z,2.25
2023-01-11T19:14:50.203Z,2.10
2023-01-11T19:17:18.341Z,1.80
2023-01-11T19:19:47.053Z,2.00
2023-01-11T19:22:15.124Z,1.30
2023-01-11T19:24:43.105Z,1.90
2023-01-11T19:27:13.467Z,1.70
2023-01-11T19:29:43.144Z,1.95
2023-01-11T19:32:11.465Z,1.77
2023-01-11T19:34:40.600Z,2.08
2023-01-11T19:37:09.025Z,2.20
2023-01-11T19:39:37.341Z,2.03
2023-01-11T19:42:05.694Z,1.90
2023-01-11T19:44:35.328Z,2.33
2023-01-11T19:47:11.616Z,1.92
2023-01-11T19:49:40.607Z,2.25
2023-01-11T19:52:12.680Z,2.03
2023-01-11T19:54:42.223Z,2.30
2023-01-11T19:57:11.423Z,1.40
2023-01-11T19:59:39.541Z,1.45
2023-01-11T20:02:11.799Z,1.92
2023-01-11T20:04:40.773Z,2.60
2023-01-11T20:07:09.906Z,2.17
2023-01-11T20:09:38.440Z,2.05
2023-01-11T20:12:07.132Z,1.62
2023-01-11T20:14:35.286Z,2.45
2023-01-11T20:17:03.893Z,1.80
2023-01-11T20:19:33.685Z,1.85
2023-01-11T20:22:01.902Z,2.17
2023-01-11T20:24:30.365Z,1.75
2023-01-11T20:27:00.263Z,1.90
2023-01-11T20:29:28.516Z,1.83
2023-01-11T20:32:10.523Z,1.37
2023-01-11T20:34:46.767Z,1.80
2023-01-11T20:37:15.076Z,1.98
2023-01-11T20:39:43.137Z,2.05
2023-01-11T20:42:12.616Z,1.70
2023-01-11T20:44:40.614Z,1.65
2023-01-11T20:47:08.757Z,1.92
2023-01-11T20:49:37.037Z,1.65
2023-01-11T20:52:06.575Z,1.77
2023-01-11T20:54:34.667Z,1.48
2023-01-11T20:57:05.626Z,1.60
2023-01-11T20:59:34.787Z,1.70
2023-01-11T21:02:03.064Z,1.40
2023-01-11T21:04:31.437Z,1.70
2023-01-11T21:06:59.539Z,1.50
2023-01-11T21:09:29.775Z,1.70
2023-01-11T21:11:57.848Z,1.83
2023-01-11T21:14:25.941Z,1.45
2023-01-11T21:16:55.341Z,2.10
2023-01-11T21:19:23.763Z,1.87
2023-01-11T21:21:51.857Z,1.75
2023-01-11T21:24:20.786Z,1.48
2023-01-11T21:26:50.275Z,1.98
2023-01-11T21:29:18.388Z,2.15
2023-01-11T21:31:46.874Z,1.40
2023-01-11T21:34:15.168Z,1.35
2023-01-11T21:36:44.580Z,1.20
2023-01-11T21:39:14.148Z,1.33
2023-01-11T21:41:58.684Z,1.23
2023-01-11T21:44:31.938Z,1.60
2023-01-11T21:47:00.283Z,1.08
2023-01-11T21:49:28.762Z,2.15
2023-01-11T21:51:56.939Z,1.35
2023-01-11T21:54:25.238Z,1.70
2023-01-11T21:56:53.615Z,1.48
2023-01-11T21:59:21.608Z,1.50
2023-01-11T22:01:51.228Z,1.83
2023-01-11T22:04:21.609Z,1.75
2023-01-11T22:06:55.255Z,1.17
2023-01-11T22:09:27.455Z,1.55
2023-01-11T22:11:55.990Z,1.92
2023-01-11T22:14:23.945Z,1.75
2023-01-11T22:16:53.872Z,1.73
2023-01-11T22:19:21.811Z,1.70
2023-01-11T22:21:49.839Z,1.15
2023-01-11T22:24:18.431Z,1.62
2023-01-11T22:26:46.646Z,1.35
2023-01-11T22:29:15.736Z,1.50
2023-01-11T22:31:47.293Z,1.50
2023-01-11T22:34:16.878Z,1.17
2023-01-11T22:36:46.084Z,0.73
2023-01-11T22:39:15.675Z,0.93
2023-01-11T22:41:45.949Z,1.60
2023-01-11T22:44:14.863Z,0.90
2023-01-11T22:46:43.691Z,1.00
2023-01-11T22:49:12.163Z,1.20
2023-01-11T22:51:43.313Z,0.90
2023-01-11T22:54:11.714Z,1.17
2023-01-11T22:56:40.194Z,1.17
2023-01-11T22:59:08.699Z,1.25
2023-01-11T23:01:39.017Z,1.60
2023-01-11T23:04:12.038Z,0.82
2023-01-11T23:06:44.008Z,1.00
2023-01-11T23:09:16.317Z,0.88
2023-01-11T23:12:03.744Z,0.80
2023-01-11T23:14:32.955Z,0.77
2023-01-11T23:17:02.864Z,1.37
2023-01-11T23:19:32.034Z,0.98
2023-01-11T23:22:01.599Z,1.17
2023-01-11T23:24:29.840Z,1.05
2023-01-11T23:26:57.998Z,1.55
2023-01-11T23:29:25.971Z,1.23
2023-01-11T23:31:54.448Z,0.77
2023-01-11T23:34:22.716Z,0.85
2023-01-11T23:36:50.976Z,0.75
2023-01-11T23:39:20.705Z,0.85
2023-01-11T23:42:06.573Z,0.62
2023-01-11T23:44:35.150Z,0.93
2023-01-11T23:47:20.694Z,1.60
2023-01-11T23:49:49.518Z,0.85
2023-01-11T23:52:17.717Z,0.80
2023-01-11T23:54:47.149Z,1.05
2023-01-11T23:57:16.401Z,0.93
2023-01-11T23:59:44.715Z,0.80
